sensor_id;sensor_type;location;lat;lon;timestamp;temperature;humidity
9537;DHT22;4807;48.024;11.726;2023-09-07T00:00:05;12.10;99.90
9537;DHT22;4807;48.024;11.726;2023-09-07T00:03:19;12.10;99.90
9537;DHT22;4807;48.024;11.726;2023-09-07T00:06:30;11.90;99.90
9537;DHT22;4807;48.024;11.726;2023-09-07T00:09:38;11.80;99.90
9537;DHT22;4807;48.024;11.726;2023-09-07T00:12:47;11.80;99.90
9537;DHT22;4807;48.024;11.726;2023-09-07T00:15:58;11.80;99.90
9537;DHT22;4807;48.024;11.726;2023-09-07T00:19:09;11.90;99.90
9537;DHT22;4807;48.024;11.726;2023-09-07T00:22:17;12.00;99.90
9537;DHT22;4807;48.024;11.726;2023-09-07T00:25:26;11.90;99.90
9537;DHT22;4807;48.024;11.726;2023-09-07T00:28:34;11.70;99.90
9537;DHT22;4807;48.024;11.726;2023-09-07T00:31:43;11.70;99.90
9537;DHT22;4807;48.024;11.726;2023-09-07T00:34:53;11.50;99.90
9537;DHT22;4807;48.024;11.726;2023-09-07T00:38:01;11.40;99.90
9537;DHT22;4807;48.024;11.726;2023-09-07T00:41:11;13.20;99.90
9537;DHT22;4807;48.024;11.726;2023-09-07T00:44:20;11.30;99.90
9537;DHT22;4807;48.024;11.726;2023-09-07T00:47:30;11.30;99.90
9537;DHT22;4807;48.024;11.726;2023-09-07T00:50:43;11.20;99.90
9537;DHT22;4807;48.024;11.726;2023-09-07T00:53:52;11.20;99.90
9537;DHT22;4807;48.024;11.726;2023-09-07T00:57:01;11.30;99.90
9537;DHT22;4807;48.024;11.726;2023-09-07T01:00:10;11.30;99.90
9537;DHT22;4807;48.024;11.726;2023-09-07T01:03:19;11.30;99.90
9537;DHT22;4807;48.024;11.726;2023-09-07T01:06:32;11.20;99.90
9537;DHT22;4807;48.024;11.726;2023-09-07T01:09:48;11.20;99.90
9537;DHT22;4807;48.024;11.726;2023-09-07T01:13:00;11.30;99.90
9537;DHT22;4807;48.024;11.726;2023-09-07T01:16:09;11.30;99.90
9537;DHT22;4807;48.024;11.726;2023-09-07T01:19:19;11.30;99.90
9537;DHT22;4807;48.024;11.726;2023-09-07T01:22:29;11.30;99.90
9537;DHT22;4807;48.024;11.726;2023-09-07T01:25:39;11.20;99.90
9537;DHT22;4807;48.024;11.726;2023-09-07T01:28:49;11.20;99.90
9537;DHT22;4807;48.024;11.726;2023-09-07T01:31:57;11.10;99.90
9537;DHT22;4807;48.024;11.726;2023-09-07T01:35:10;11.10;99.90
9537;DHT22;4807;48.024;11.726;2023-09-07T01:38:21;11.00;99.90
9537;DHT22;4807;48.024;11.726;2023-09-07T01:41:29;10.90;99.90
9537;DHT22;4807;48.024;11.726;2023-09-07T01:44:37;10.90;99.90
9537;DHT22;4807;48.024;11.726;2023-09-07T01:47:46;10.80;99.90
9537;DHT22;4807;48.024;11.726;2023-09-07T01:50:54;11.00;99.90
9537;DHT22;4807;48.024;11.726;2023-09-07T01:54:04;10.90;99.90
9537;DHT22;4807;48.024;11.726;2023-09-07T01:57:13;10.80;99.90
9537;DHT22;4807;48.024;11.726;2023-09-07T02:00:21;10.80;99.90
9537;DHT22;4807;48.024;11.726;2023-09-07T02:03:29;10.80;99.90
9537;DHT22;4807;48.024;11.726;2023-09-07T02:06:38;10.70;99.90
9537;DHT22;4807;48.024;11.726;2023-09-07T02:09:48;10.60;99.90
9537;DHT22;4807;48.024;11.726;2023-09-07T02:12:56;10.60;99.90
9537;DHT22;4807;48.024;11.726;2023-09-07T02:16:05;10.60;99.90
9537;DHT22;4807;48.024;11.726;2023-09-07T02:19:14;10.50;99.90
9537;DHT22;4807;48.024;11.726;2023-09-07T02:22:23;10.50;99.90
9537;DHT22;4807;48.024;11.726;2023-09-07T02:25:33;10.50;99.90
9537;DHT22;4807;48.024;11.726;2023-09-07T02:28:41;10.50;99.90
9537;DHT22;4807;48.024;11.726;2023-09-07T02:31:50;10.50;99.90
9537;DHT22;4807;48.024;11.726;2023-09-07T02:34:59;10.40;99.90
9537;DHT22;4807;48.024;11.726;2023-09-07T02:38:08;10.40;99.90
9537;DHT22;4807;48.024;11.726;2023-09-07T02:41:17;10.40;99.90
9537;DHT22;4807;48.024;11.726;2023-09-07T02:44:26;10.30;99.90
9537;DHT22;4807;48.024;11.726;2023-09-07T02:47:34;10.30;99.90
9537;DHT22;4807;48.024;11.726;2023-09-07T02:50:43;10.40;99.90
9537;DHT22;4807;48.024;11.726;2023-09-07T02:53:56;10.40;99.90
9537;DHT22;4807;48.024;11.726;2023-09-07T02:57:07;10.30;99.90
9537;DHT22;4807;48.024;11.726;2023-09-07T03:00:15;10.30;99.90
9537;DHT22;4807;48.024;11.726;2023-09-07T03:03:25;10.30;99.90
9537;DHT22;4807;48.024;11.726;2023-09-07T03:06:33;10.30;99.90
9537;DHT22;4807;48.024;11.726;2023-09-07T03:09:42;10.20;99.90
9537;DHT22;4807;48.024;11.726;2023-09-07T03:12:53;10.20;99.90
9537;DHT22;4807;48.024;11.726;2023-09-07T03:16:02;10.20;99.90
9537;DHT22;4807;48.024;11.726;2023-09-07T03:19:12;10.10;99.90
9537;DHT22;4807;48.024;11.726;2023-09-07T03:22:21;10.10;99.90
9537;DHT22;4807;48.024;11.726;2023-09-07T03:25:30;10.10;99.90
9537;DHT22;4807;48.024;11.726;2023-09-07T03:28:41;10.00;99.90
9537;DHT22;4807;48.024;11.726;2023-09-07T03:31:49;10.00;99.90
9537;DHT22;4807;48.024;11.726;2023-09-07T03:34:58;9.90;99.90
9537;DHT22;4807;48.024;11.726;2023-09-07T03:38:07;9.90;99.90
9537;DHT22;4807;48.024;11.726;2023-09-07T03:41:15;9.90;99.90
9537;DHT22;4807;48.024;11.726;2023-09-07T03:44:25;9.80;99.90
9537;DHT22;4807;48.024;11.726;2023-09-07T03:47:33;9.80;99.90
9537;DHT22;4807;48.024;11.726;2023-09-07T03:50:42;9.80;99.90
9537;DHT22;4807;48.024;11.726;2023-09-07T03:53:50;9.80;99.90
9537;DHT22;4807;48.024;11.726;2023-09-07T03:56:59;9.80;99.90
9537;DHT22;4807;48.024;11.726;2023-09-07T04:00:10;9.80;99.90
9537;DHT22;4807;48.024;11.726;2023-09-07T04:03:21;9.80;99.90
9537;DHT22;4807;48.024;11.726;2023-09-07T04:09:42;9.30;99.90
9537;DHT22;4807;48.024;11.726;2023-09-07T04:12:51;9.60;99.90
9537;DHT22;4807;48.024;11.726;2023-09-07T04:16:02;9.60;99.90
9537;DHT22;4807;48.024;11.726;2023-09-07T04:19:11;9.60;99.90
9537;DHT22;4807;48.024;11.726;2023-09-07T04:22:19;9.50;99.90
9537;DHT22;4807;48.024;11.726;2023-09-07T04:25:28;9.50;99.90
9537;DHT22;4807;48.024;11.726;2023-09-07T04:28:36;9.50;99.90
9537;DHT22;4807;48.024;11.726;2023-09-07T04:31:47;9.50;99.90
9537;DHT22;4807;48.024;11.726;2023-09-07T04:34:56;9.40;99.90
9537;DHT22;4807;48.024;11.726;2023-09-07T04:38:06;9.40;99.90
9537;DHT22;4807;48.024;11.726;2023-09-07T04:41:14;9.50;99.90
9537;DHT22;4807;48.024;11.726;2023-09-07T04:44:26;9.40;99.90
9537;DHT22;4807;48.024;11.726;2023-09-07T04:47:36;9.40;99.90
9537;DHT22;4807;48.024;11.726;2023-09-07T04:50:46;9.50;99.90
9537;DHT22;4807;48.024;11.726;2023-09-07T04:53:54;9.60;99.90
9537;DHT22;4807;48.024;11.726;2023-09-07T04:57:02;9.60;99.90
9537;DHT22;4807;48.024;11.726;2023-09-07T05:00:12;9.60;99.90
9537;DHT22;4807;48.024;11.726;2023-09-07T05:03:22;9.50;99.90
9537;DHT22;4807;48.024;11.726;2023-09-07T05:06:31;9.50;99.90
9537;DHT22;4807;48.024;11.726;2023-09-07T05:09:45;9.50;99.90
9537;DHT22;4807;48.024;11.726;2023-09-07T05:12:54;9.60;99.90
9537;DHT22;4807;48.024;11.726;2023-09-07T05:16:03;9.60;99.90
9537;DHT22;4807;48.024;11.726;2023-09-07T05:19:16;9.70;99.90
9537;DHT22;4807;48.024;11.726;2023-09-07T05:22:25;9.70;99.90
9537;DHT22;4807;48.024;11.726;2023-09-07T05:25:34;9.80;99.90
9537;DHT22;4807;48.024;11.726;2023-09-07T05:28:52;9.90;99.90
9537;DHT22;4807;48.024;11.726;2023-09-07T05:32:01;10.00;99.90
9537;DHT22;4807;48.024;11.726;2023-09-07T05:35:13;10.10;99.90
9537;DHT22;4807;48.024;11.726;2023-09-07T05:38:23;10.30;99.90
9537;DHT22;4807;48.024;11.726;2023-09-07T05:41:32;10.30;99.90
9537;DHT22;4807;48.024;11.726;2023-09-07T05:44:42;10.40;99.90
9537;DHT22;4807;48.024;11.726;2023-09-07T05:47:50;10.60;99.90
9537;DHT22;4807;48.024;11.726;2023-09-07T05:51:00;10.70;99.90
9537;DHT22;4807;48.024;11.726;2023-09-07T05:54:08;10.80;99.90
9537;DHT22;4807;48.024;11.726;2023-09-07T05:57:17;11.00;99.90
9537;DHT22;4807;48.024;11.726;2023-09-07T06:00:25;11.20;99.90
9537;DHT22;4807;48.024;11.726;2023-09-07T06:03:36;12.00;99.90
9537;DHT22;4807;48.024;11.726;2023-09-07T06:06:48;12.00;99.90
9537;DHT22;4807;48.024;11.726;2023-09-07T06:09:56;12.30;99.90
9537;DHT22;4807;48.024;11.726;2023-09-07T06:13:06;12.60;99.90
9537;DHT22;4807;48.024;11.726;2023-09-07T06:16:14;12.80;99.90
9537;DHT22;4807;48.024;11.726;2023-09-07T06:19:23;13.20;99.90
9537;DHT22;4807;48.024;11.726;2023-09-07T06:22:33;14.20;99.90
9537;DHT22;4807;48.024;11.726;2023-09-07T06:25:41;15.10;99.90
9537;DHT22;4807;48.024;11.726;2023-09-07T06:28:50;15.50;99.90
9537;DHT22;4807;48.024;11.726;2023-09-07T06:31:58;15.60;99.90
9537;DHT22;4807;48.024;11.726;2023-09-07T06:35:08;15.60;99.90
9537;DHT22;4807;48.024;11.726;2023-09-07T06:38:18;16.30;99.90
9537;DHT22;4807;48.024;11.726;2023-09-07T06:41:27;15.60;99.90
9537;DHT22;4807;48.024;11.726;2023-09-07T06:44:36;16.90;99.90
9537;DHT22;4807;48.024;11.726;2023-09-07T06:47:45;18.80;99.90
9537;DHT22;4807;48.024;11.726;2023-09-07T06:50:54;20.20;98.80
9537;DHT22;4807;48.024;11.726;2023-09-07T06:54:04;21.50;96.50
9537;DHT22;4807;48.024;11.726;2023-09-07T06:57:12;22.40;94.30
9537;DHT22;4807;48.024;11.726;2023-09-07T07:00:21;22.70;93.40
9537;DHT22;4807;48.024;11.726;2023-09-07T07:03:30;23.30;92.50
9537;DHT22;4807;48.024;11.726;2023-09-07T07:06:39;23.60;91.60
9537;DHT22;4807;48.024;11.726;2023-09-07T07:09:49;24.10;91.60
9537;DHT22;4807;48.024;11.726;2023-09-07T07:13:00;24.80;90.40
9537;DHT22;4807;48.024;11.726;2023-09-07T07:16:10;25.40;88.60
9537;DHT22;4807;48.024;11.726;2023-09-07T07:19:19;25.50;87.10
9537;DHT22;4807;48.024;11.726;2023-09-07T07:22:41;25.90;86.30
9537;DHT22;4807;48.024;11.726;2023-09-07T07:25:54;26.20;85.40
9537;DHT22;4807;48.024;11.726;2023-09-07T07:29:05;26.30;84.10
9537;DHT22;4807;48.024;11.726;2023-09-07T07:32:29;26.20;84.10
9537;DHT22;4807;48.024;11.726;2023-09-07T07:35:38;25.50;86.10
9537;DHT22;4807;48.024;11.726;2023-09-07T07:38:46;24.60;89.00
9537;DHT22;4807;48.024;11.726;2023-09-07T07:41:57;23.50;91.60
9537;DHT22;4807;48.024;11.726;2023-09-07T07:45:07;23.80;91.90
9537;DHT22;4807;48.024;11.726;2023-09-07T07:48:16;24.10;91.00
9537;DHT22;4807;48.024;11.726;2023-09-07T07:51:25;23.90;91.60
9537;DHT22;4807;48.024;11.726;2023-09-07T07:54:35;23.10;92.60
9537;DHT22;4807;48.024;11.726;2023-09-07T07:57:46;21.80;94.90
9537;DHT22;4807;48.024;11.726;2023-09-07T08:00:54;21.10;96.10
9537;DHT22;4807;48.024;11.726;2023-09-07T08:04:09;20.70;97.40
9537;DHT22;4807;48.024;11.726;2023-09-07T08:07:19;20.60;97.00
9537;DHT22;4807;48.024;11.726;2023-09-07T08:10:27;20.30;98.00
9537;DHT22;4807;48.024;11.726;2023-09-07T08:13:40;20.00;98.40
9537;DHT22;4807;48.024;11.726;2023-09-07T08:16:53;19.90;98.60
9537;DHT22;4807;48.024;11.726;2023-09-07T08:20:02;19.90;98.90
9537;DHT22;4807;48.024;11.726;2023-09-07T08:23:11;20.10;99.20
9537;DHT22;4807;48.024;11.726;2023-09-07T08:26:20;20.70;99.00
9537;DHT22;4807;48.024;11.726;2023-09-07T08:29:30;21.70;97.60
9537;DHT22;4807;48.024;11.726;2023-09-07T08:32:39;22.30;95.90
9537;DHT22;4807;48.024;11.726;2023-09-07T08:35:52;22.00;96.20
9537;DHT22;4807;48.024;11.726;2023-09-07T08:39:04;21.70;95.70
9537;DHT22;4807;48.024;11.726;2023-09-07T08:42:17;21.60;96.40
9537;DHT22;4807;48.024;11.726;2023-09-07T08:45:30;21.90;96.00
9537;DHT22;4807;48.024;11.726;2023-09-07T08:48:43;22.60;95.00
9537;DHT22;4807;48.024;11.726;2023-09-07T08:51:53;23.40;94.10
9537;DHT22;4807;48.024;11.726;2023-09-07T08:55:06;24.00;93.60
9537;DHT22;4807;48.024;11.726;2023-09-07T08:58:15;24.20;92.50
9537;DHT22;4807;48.024;11.726;2023-09-07T09:01:25;24.20;91.80
9537;DHT22;4807;48.024;11.726;2023-09-07T09:04:34;24.00;92.60
9537;DHT22;4807;48.024;11.726;2023-09-07T09:07:43;24.00;92.60
9537;DHT22;4807;48.024;11.726;2023-09-07T09:10:59;24.10;92.50
9537;DHT22;4807;48.024;11.726;2023-09-07T09:14:10;23.70;92.20
9537;DHT22;4807;48.024;11.726;2023-09-07T09:17:26;23.30;93.40
9537;DHT22;4807;48.024;11.726;2023-09-07T09:20:34;23.30;93.60
9537;DHT22;4807;48.024;11.726;2023-09-07T09:23:48;22.80;94.20
9537;DHT22;4807;48.024;11.726;2023-09-07T09:26:58;22.80;94.50
9537;DHT22;4807;48.024;11.726;2023-09-07T09:30:07;23.00;95.40
9537;DHT22;4807;48.024;11.726;2023-09-07T09:33:19;22.90;95.10
9537;DHT22;4807;48.024;11.726;2023-09-07T09:36:33;22.90;95.70
9537;DHT22;4807;48.024;11.726;2023-09-07T09:39:43;23.00;95.20
9537;DHT22;4807;48.024;11.726;2023-09-07T09:42:52;23.20;94.80
9537;DHT22;4807;48.024;11.726;2023-09-07T09:46:03;23.50;94.40
9537;DHT22;4807;48.024;11.726;2023-09-07T09:49:20;23.80;95.00
9537;DHT22;4807;48.024;11.726;2023-09-07T09:52:30;24.00;94.40
9537;DHT22;4807;48.024;11.726;2023-09-07T09:55:39;24.40;94.30
9537;DHT22;4807;48.024;11.726;2023-09-07T09:58:47;24.60;93.90
9537;DHT22;4807;48.024;11.726;2023-09-07T10:01:56;24.70;94.00
9537;DHT22;4807;48.024;11.726;2023-09-07T10:05:09;24.70;93.50
9537;DHT22;4807;48.024;11.726;2023-09-07T10:08:19;24.60;93.20
9537;DHT22;4807;48.024;11.726;2023-09-07T10:11:31;24.70;93.00
9537;DHT22;4807;48.024;11.726;2023-09-07T10:14:40;24.70;93.00
9537;DHT22;4807;48.024;11.726;2023-09-07T10:17:49;24.60;92.80
9537;DHT22;4807;48.024;11.726;2023-09-07T10:21:01;24.50;92.70
9537;DHT22;4807;48.024;11.726;2023-09-07T10:24:10;24.50;93.40
9537;DHT22;4807;48.024;11.726;2023-09-07T10:27:18;24.50;92.90
9537;DHT22;4807;48.024;11.726;2023-09-07T10:30:28;24.60;93.60
9537;DHT22;4807;48.024;11.726;2023-09-07T10:33:39;24.50;93.10
9537;DHT22;4807;48.024;11.726;2023-09-07T10:36:55;24.10;93.10
9537;DHT22;4807;48.024;11.726;2023-09-07T10:40:05;24.10;93.70
9537;DHT22;4807;48.024;11.726;2023-09-07T10:43:18;24.20;93.00
9537;DHT22;4807;48.024;11.726;2023-09-07T10:46:27;24.20;93.30
9537;DHT22;4807;48.024;11.726;2023-09-07T10:49:35;24.40;95.10
9537;DHT22;4807;48.024;11.726;2023-09-07T10:52:45;24.40;93.70
9537;DHT22;4807;48.024;11.726;2023-09-07T10:55:56;24.60;94.00
9537;DHT22;4807;48.024;11.726;2023-09-07T10:59:06;24.70;92.40
9537;DHT22;4807;48.024;11.726;2023-09-07T11:02:15;24.50;92.60
9537;DHT22;4807;48.024;11.726;2023-09-07T11:05:24;24.60;92.90
9537;DHT22;4807;48.024;11.726;2023-09-07T11:08:34;24.40;93.50
9537;DHT22;4807;48.024;11.726;2023-09-07T11:11:46;24.50;92.80
9537;DHT22;4807;48.024;11.726;2023-09-07T11:14:55;24.50;92.90
9537;DHT22;4807;48.024;11.726;2023-09-07T11:18:04;24.60;93.60
9537;DHT22;4807;48.024;11.726;2023-09-07T11:21:14;24.70;93.50
9537;DHT22;4807;48.024;11.726;2023-09-07T11:24:24;24.50;92.90
9537;DHT22;4807;48.024;11.726;2023-09-07T11:27:33;24.60;93.80
9537;DHT22;4807;48.024;11.726;2023-09-07T11:30:49;24.60;93.00
9537;DHT22;4807;48.024;11.726;2023-09-07T11:33:58;24.70;93.30
9537;DHT22;4807;48.024;11.726;2023-09-07T11:37:06;24.70;93.20
9537;DHT22;4807;48.024;11.726;2023-09-07T11:40:15;24.60;92.50
9537;DHT22;4807;48.024;11.726;2023-09-07T11:43:24;24.30;93.10
9537;DHT22;4807;48.024;11.726;2023-09-07T11:46:32;24.50;93.90
9537;DHT22;4807;48.024;11.726;2023-09-07T11:49:40;24.60;93.60
9537;DHT22;4807;48.024;11.726;2023-09-07T11:52:48;24.60;93.80
9537;DHT22;4807;48.024;11.726;2023-09-07T11:55:58;24.60;93.10
9537;DHT22;4807;48.024;11.726;2023-09-07T11:59:06;24.70;93.60
9537;DHT22;4807;48.024;11.726;2023-09-07T12:02:15;24.80;92.40
9537;DHT22;4807;48.024;11.726;2023-09-07T12:05:25;24.70;93.70
9537;DHT22;4807;48.024;11.726;2023-09-07T12:08:33;24.80;93.30
9537;DHT22;4807;48.024;11.726;2023-09-07T12:11:43;24.80;93.20
9537;DHT22;4807;48.024;11.726;2023-09-07T12:14:51;24.80;93.00
9537;DHT22;4807;48.024;11.726;2023-09-07T12:18:00;24.80;93.10
9537;DHT22;4807;48.024;11.726;2023-09-07T12:21:09;24.90;92.70
9537;DHT22;4807;48.024;11.726;2023-09-07T12:24:17;24.90;92.50
9537;DHT22;4807;48.024;11.726;2023-09-07T12:27:27;25.00;92.40
9537;DHT22;4807;48.024;11.726;2023-09-07T12:30:46;24.90;92.70
9537;DHT22;4807;48.024;11.726;2023-09-07T12:33:55;24.90;93.10
9537;DHT22;4807;48.024;11.726;2023-09-07T12:37:04;24.90;92.40
9537;DHT22;4807;48.024;11.726;2023-09-07T12:40:12;24.90;92.40
9537;DHT22;4807;48.024;11.726;2023-09-07T12:43:23;25.00;92.50
9537;DHT22;4807;48.024;11.726;2023-09-07T12:46:33;25.00;92.80
9537;DHT22;4807;48.024;11.726;2023-09-07T12:49:42;25.10;92.00
9537;DHT22;4807;48.024;11.726;2023-09-07T12:52:50;25.10;91.50
9537;DHT22;4807;48.024;11.726;2023-09-07T12:55:58;25.00;90.90
9537;DHT22;4807;48.024;11.726;2023-09-07T12:59:10;25.00;91.40
9537;DHT22;4807;48.024;11.726;2023-09-07T13:02:19;25.00;91.70
9537;DHT22;4807;48.024;11.726;2023-09-07T13:05:27;24.90;91.80
9537;DHT22;4807;48.024;11.726;2023-09-07T13:08:35;24.80;91.60
9537;DHT22;4807;48.024;11.726;2023-09-07T13:11:43;24.90;92.00
9537;DHT22;4807;48.024;11.726;2023-09-07T13:14:53;24.90;91.40
9537;DHT22;4807;48.024;11.726;2023-09-07T13:18:01;24.80;90.60
9537;DHT22;4807;48.024;11.726;2023-09-07T13:21:10;24.80;90.90
9537;DHT22;4807;48.024;11.726;2023-09-07T13:24:19;24.80;90.90
9537;DHT22;4807;48.024;11.726;2023-09-07T13:27:31;24.80;91.30
9537;DHT22;4807;48.024;11.726;2023-09-07T13:30:40;24.90;91.60
9537;DHT22;4807;48.024;11.726;2023-09-07T13:33:49;24.90;90.70
9537;DHT22;4807;48.024;11.726;2023-09-07T13:36:58;24.90;90.70
9537;DHT22;4807;48.024;11.726;2023-09-07T13:40:07;24.90;89.50
9537;DHT22;4807;48.024;11.726;2023-09-07T13:43:16;24.80;89.20
9537;DHT22;4807;48.024;11.726;2023-09-07T13:46:26;24.70;87.20
9537;DHT22;4807;48.024;11.726;2023-09-07T13:49:34;24.70;88.30
9537;DHT22;4807;48.024;11.726;2023-09-07T13:52:42;24.70;88.80
9537;DHT22;4807;48.024;11.726;2023-09-07T13:55:51;24.70;89.40
9537;DHT22;4807;48.024;11.726;2023-09-07T13:59:00;24.60;87.90
9537;DHT22;4807;48.024;11.726;2023-09-07T14:02:09;24.60;86.30
9537;DHT22;4807;48.024;11.726;2023-09-07T14:05:17;24.50;86.10
9537;DHT22;4807;48.024;11.726;2023-09-07T14:08:26;24.50;82.60
9537;DHT22;4807;48.024;11.726;2023-09-07T14:11:37;24.50;82.00
9537;DHT22;4807;48.024;11.726;2023-09-07T14:14:45;24.50;80.60
9537;DHT22;4807;48.024;11.726;2023-09-07T14:17:55;24.60;80.40
9537;DHT22;4807;48.024;11.726;2023-09-07T14:21:03;24.60;82.10
9537;DHT22;4807;48.024;11.726;2023-09-07T14:24:11;24.60;84.10
9537;DHT22;4807;48.024;11.726;2023-09-07T14:27:19;24.70;86.80
9537;DHT22;4807;48.024;11.726;2023-09-07T14:30:28;24.60;86.30
9537;DHT22;4807;48.024;11.726;2023-09-07T14:33:38;24.80;88.20
9537;DHT22;4807;48.024;11.726;2023-09-07T14:36:49;24.80;87.10
9537;DHT22;4807;48.024;11.726;2023-09-07T14:39:57;24.60;87.90
9537;DHT22;4807;48.024;11.726;2023-09-07T14:43:06;24.70;88.40
9537;DHT22;4807;48.024;11.726;2023-09-07T14:46:15;24.70;89.10
9537;DHT22;4807;48.024;11.726;2023-09-07T14:49:25;24.60;89.00
9537;DHT22;4807;48.024;11.726;2023-09-07T14:52:34;24.60;88.80
9537;DHT22;4807;48.024;11.726;2023-09-07T14:55:47;24.60;89.00
9537;DHT22;4807;48.024;11.726;2023-09-07T14:58:55;24.40;89.90
9537;DHT22;4807;48.024;11.726;2023-09-07T15:02:04;24.40;89.70
9537;DHT22;4807;48.024;11.726;2023-09-07T15:05:14;24.30;89.50
9537;DHT22;4807;48.024;11.726;2023-09-07T15:08:22;24.40;88.60
9537;DHT22;4807;48.024;11.726;2023-09-07T15:11:32;24.40;89.40
9537;DHT22;4807;48.024;11.726;2023-09-07T15:14:40;24.20;88.10
9537;DHT22;4807;48.024;11.726;2023-09-07T15:17:50;24.30;88.40
9537;DHT22;4807;48.024;11.726;2023-09-07T15:20:59;24.30;89.50
9537;DHT22;4807;48.024;11.726;2023-09-07T15:24:08;24.30;88.90
9537;DHT22;4807;48.024;11.726;2023-09-07T15:27:20;24.30;89.20
9537;DHT22;4807;48.024;11.726;2023-09-07T15:30:28;24.30;88.50
9537;DHT22;4807;48.024;11.726;2023-09-07T15:33:37;24.30;87.60
9537;DHT22;4807;48.024;11.726;2023-09-07T15:36:46;24.20;88.10
9537;DHT22;4807;48.024;11.726;2023-09-07T15:39:55;24.20;89.30
9537;DHT22;4807;48.024;11.726;2023-09-07T15:43:03;24.10;88.70
9537;DHT22;4807;48.024;11.726;2023-09-07T15:46:12;24.00;89.00
9537;DHT22;4807;48.024;11.726;2023-09-07T15:49:20;24.10;87.30
9537;DHT22;4807;48.024;11.726;2023-09-07T15:52:31;24.00;88.10
9537;DHT22;4807;48.024;11.726;2023-09-07T15:55:42;24.00;87.10
9537;DHT22;4807;48.024;11.726;2023-09-07T15:58:50;24.00;86.70
9537;DHT22;4807;48.024;11.726;2023-09-07T16:01:58;23.80;87.70
9537;DHT22;4807;48.024;11.726;2023-09-07T16:05:07;23.80;88.20
9537;DHT22;4807;48.024;11.726;2023-09-07T16:08:18;23.70;88.30
9537;DHT22;4807;48.024;11.726;2023-09-07T16:11:28;23.70;88.00
9537;DHT22;4807;48.024;11.726;2023-09-07T16:14:36;23.70;88.10
9537;DHT22;4807;48.024;11.726;2023-09-07T16:17:44;23.60;89.10
9537;DHT22;4807;48.024;11.726;2023-09-07T16:20:53;23.60;86.90
9537;DHT22;4807;48.024;11.726;2023-09-07T16:24:03;23.60;87.50
9537;DHT22;4807;48.024;11.726;2023-09-07T16:27:12;23.50;87.80
9537;DHT22;4807;48.024;11.726;2023-09-07T16:30:20;23.40;87.20
9537;DHT22;4807;48.024;11.726;2023-09-07T16:33:29;23.40;87.80
9537;DHT22;4807;48.024;11.726;2023-09-07T16:36:37;23.40;88.00
9537;DHT22;4807;48.024;11.726;2023-09-07T16:39:49;23.30;88.40
9537;DHT22;4807;48.024;11.726;2023-09-07T16:42:58;23.20;88.20
9537;DHT22;4807;48.024;11.726;2023-09-07T16:46:06;23.10;88.60
9537;DHT22;4807;48.024;11.726;2023-09-07T16:49:15;23.00;88.80
9537;DHT22;4807;48.024;11.726;2023-09-07T16:52:25;22.90;89.60
9537;DHT22;4807;48.024;11.726;2023-09-07T16:55:35;22.80;89.50
9537;DHT22;4807;48.024;11.726;2023-09-07T16:58:44;22.60;90.40
9537;DHT22;4807;48.024;11.726;2023-09-07T17:01:55;22.60;90.20
9537;DHT22;4807;48.024;11.726;2023-09-07T17:05:04;22.50;90.50
9537;DHT22;4807;48.024;11.726;2023-09-07T17:08:16;22.30;90.80
9537;DHT22;4807;48.024;11.726;2023-09-07T17:11:28;22.10;91.20
9537;DHT22;4807;48.024;11.726;2023-09-07T17:14:39;22.00;91.60
9537;DHT22;4807;48.024;11.726;2023-09-07T17:17:48;21.90;91.80
9537;DHT22;4807;48.024;11.726;2023-09-07T17:20:57;21.60;92.50
9537;DHT22;4807;48.024;11.726;2023-09-07T17:24:11;21.60;92.40
9537;DHT22;4807;48.024;11.726;2023-09-07T17:27:21;21.40;93.00
9537;DHT22;4807;48.024;11.726;2023-09-07T17:30:33;21.00;93.30
9537;DHT22;4807;48.024;11.726;2023-09-07T17:33:41;20.80;94.00
9537;DHT22;4807;48.024;11.726;2023-09-07T17:36:50;20.50;94.60
9537;DHT22;4807;48.024;11.726;2023-09-07T17:39:59;20.30;95.20
9537;DHT22;4807;48.024;11.726;2023-09-07T17:43:10;20.20;95.50
9537;DHT22;4807;48.024;11.726;2023-09-07T17:46:18;20.10;95.50
9537;DHT22;4807;48.024;11.726;2023-09-07T17:49:28;19.90;96.00
9537;DHT22;4807;48.024;11.726;2023-09-07T17:52:37;19.70;96.20
9537;DHT22;4807;48.024;11.726;2023-09-07T17:55:46;19.30;96.70
9537;DHT22;4807;48.024;11.726;2023-09-07T17:58:56;19.00;97.20
9537;DHT22;4807;48.024;11.726;2023-09-07T18:02:17;18.80;97.70
9537;DHT22;4807;48.024;11.726;2023-09-07T18:05:28;18.60;98.10
9537;DHT22;4807;48.024;11.726;2023-09-07T18:08:39;18.40;98.90
9537;DHT22;4807;48.024;11.726;2023-09-07T18:11:48;18.20;99.20
9537;DHT22;4807;48.024;11.726;2023-09-07T18:14:58;18.20;99.60
9537;DHT22;4807;48.024;11.726;2023-09-07T18:18:07;18.00;99.90
9537;DHT22;4807;48.024;11.726;2023-09-07T18:21:15;17.90;99.90
9537;DHT22;4807;48.024;11.726;2023-09-07T18:24:24;17.80;99.90
9537;DHT22;4807;48.024;11.726;2023-09-07T18:27:33;17.70;99.90
9537;DHT22;4807;48.024;11.726;2023-09-07T18:30:43;17.60;99.90
9537;DHT22;4807;48.024;11.726;2023-09-07T18:33:52;17.50;99.90
9537;DHT22;4807;48.024;11.726;2023-09-07T18:37:00;17.50;99.90
9537;DHT22;4807;48.024;11.726;2023-09-07T18:40:09;17.30;99.90
9537;DHT22;4807;48.024;11.726;2023-09-07T18:43:18;17.10;99.90
9537;DHT22;4807;48.024;11.726;2023-09-07T18:46:28;17.10;99.90
9537;DHT22;4807;48.024;11.726;2023-09-07T18:49:37;17.00;99.90
9537;DHT22;4807;48.024;11.726;2023-09-07T18:52:45;16.90;99.90
9537;DHT22;4807;48.024;11.726;2023-09-07T18:55:55;16.80;99.90
9537;DHT22;4807;48.024;11.726;2023-09-07T18:59:04;16.80;99.90
9537;DHT22;4807;48.024;11.726;2023-09-07T19:02:15;16.70;99.90
9537;DHT22;4807;48.024;11.726;2023-09-07T19:05:24;16.60;99.90
9537;DHT22;4807;48.024;11.726;2023-09-07T19:08:32;16.60;99.90
9537;DHT22;4807;48.024;11.726;2023-09-07T19:11:41;16.50;99.90
9537;DHT22;4807;48.024;11.726;2023-09-07T19:14:49;16.50;99.90
9537;DHT22;4807;48.024;11.726;2023-09-07T19:17:59;16.30;99.90
9537;DHT22;4807;48.024;11.726;2023-09-07T19:21:08;16.20;99.90
9537;DHT22;4807;48.024;11.726;2023-09-07T19:24:30;16.10;99.90
9537;DHT22;4807;48.024;11.726;2023-09-07T19:27:39;16.00;99.90
9537;DHT22;4807;48.024;11.726;2023-09-07T19:30:48;15.90;99.90
9537;DHT22;4807;48.024;11.726;2023-09-07T19:33:58;15.80;99.90
9537;DHT22;4807;48.024;11.726;2023-09-07T19:37:07;15.70;99.90
9537;DHT22;4807;48.024;11.726;2023-09-07T19:40:16;15.70;99.90
9537;DHT22;4807;48.024;11.726;2023-09-07T19:43:24;15.60;99.90
9537;DHT22;4807;48.024;11.726;2023-09-07T19:46:32;15.50;99.90
9537;DHT22;4807;48.024;11.726;2023-09-07T19:49:42;15.60;99.90
9537;DHT22;4807;48.024;11.726;2023-09-07T19:52:51;15.60;99.90
9537;DHT22;4807;48.024;11.726;2023-09-07T19:56:04;15.60;99.90
9537;DHT22;4807;48.024;11.726;2023-09-07T19:59:12;15.50;99.90
9537;DHT22;4807;48.024;11.726;2023-09-07T20:02:21;15.30;99.90
9537;DHT22;4807;48.024;11.726;2023-09-07T20:05:32;15.20;99.90
9537;DHT22;4807;48.024;11.726;2023-09-07T20:08:40;15.10;99.90
9537;DHT22;4807;48.024;11.726;2023-09-07T20:11:50;15.10;99.90
9537;DHT22;4807;48.024;11.726;2023-09-07T20:14:59;15.00;99.90
9537;DHT22;4807;48.024;11.726;2023-09-07T20:18:07;15.00;99.90
9537;DHT22;4807;48.024;11.726;2023-09-07T20:21:17;14.90;99.90